Time;durP1;ratioP1;P1;durP2;ratioP2;P2;SDS_P1;SDS_P2;PMS_P1;PMS_P2;Temp;Humidity;BMP_temperature;BMP_pressure;BME280_temperature;BME280_humidity;BME280_pressure;Samples;Min_cycle;Max_cycle;Signal;HPM_P1;HPM_P2
2024/03/31 00:03:00;;;;;;;5.70;5.20;;;;;;;;;;6150645;23;20390;-84
2024/03/31 00:09:18;;;;;;;6.63;5.60;;;;;;;;;;6172864;23;20379;-84
2024/03/31 00:12:16;;;;;;;5.87;5.30;;;;;;;;;;6150827;23;20390;-85
2024/03/31 00:14:52;;;;;;;5.93;5.10;;;;;;;;;;6148339;23;20399;-83
2024/03/31 00:17:19;;;;;;;13.30;6.73;;;;;;;;;;6142571;23;20406;-86
2024/03/31 00:20:02;;;;;;;;;;;;;;;;;;;;;
2024/03/31 00:23:07;;;;;;;8.67;7.87;;;;;;;;;;6171517;23;20452;-86
2024/03/31 00:25:52;;;;;;;7.87;7.07;;;;;;;;;;6141935;23;20394;-87
2024/03/31 00:28:39;;;;;;;8.80;7.40;;;;;;;;;;6144932;23;20394;-86
2024/03/31 00:31:14;;;;;;;8.70;7.80;;;;;;;;;;6145011;23;20418;-85
2024/03/31 00:34:00;;;;;;;8.50;7.60;;;;;;;;;;6142597;23;20408;-86
2024/03/31 00:36:54;;;;;;;8.10;7.00;;;;;;;;;;6115393;23;20430;-84
2024/03/31 00:39:59;;;;;;;8.27;7.10;;;;;;;;;;6192084;23;20406;-85
2024/03/31 00:42:47;;;;;;;;;;;;;;;;;;;;;
2024/03/31 00:45:45;;;;;;;8.30;6.50;;;;;;;;;;6088275;23;20381;-87
2024/03/31 00:48:32;;;;;;;6.67;5.90;;;;;;;;;;6028882;23;20865;-85
2024/03/31 01:00:41;;;;;;;7.30;6.53;;;;;;;;;;6128030;23;20424;-84
2024/03/31 01:03:31;;;;;;;9.50;7.53;;;;;;;;;;6141275;23;20408;-85
2024/03/31 01:06:22;;;;;;;;;;;;;;;;;;;;;
2024/03/31 01:09:22;;;;;;;8.57;6.53;;;;;;;;;;6195691;23;20886;-84
2024/03/31 01:12:11;;;;;;;8.30;6.57;;;;;;;;;;6142169;23;20399;-84
2024/03/31 01:15:08;;;;;;;8.20;7.10;;;;;;;;;;6165490;23;20394;-85
2024/03/31 01:17:48;;;;;;;7.10;6.40;;;;;;;;;;6140614;23;20455;-85
2024/03/31 01:20:29;;;;;;;7.00;6.30;;;;;;;;;;6139233;23;20448;-82
2024/03/31 01:26:18;;;;;;;7.80;7.00;;;;;;;;;;6151981;23;20442;-82
2024/03/31 01:29:04;;;;;;;8.57;7.00;;;;;;;;;;6153956;23;20409;-83
2024/03/31 01:31:44;;;;;;;7.77;6.93;;;;;;;;;;6141311;23;20402;-84
2024/03/31 01:34:58;;;;;;;8.43;6.47;;;;;;;;;;6181881;23;20428;-83
2024/03/31 01:37:39;;;;;;;6.47;5.80;;;;;;;;;;6147557;23;20412;-85
2024/03/31 01:43:40;;;;;;;;;;;;;;;;;;;;;
2024/03/31 01:46:16;;;;;;;7.43;6.63;;;;;;;;;;6157549;23;20442;-85
2024/03/31 01:49:11;;;;;;;7.70;5.70;;;;;;;;;;6140633;23;20405;-86
2024/03/31 01:51:51;;;;;;;7.23;4.70;;;;;;;;;;6143641;23;20421;-84
2024/03/31 01:54:20;;;;;;;6.60;5.37;;;;;;;;;;6141286;23;20402;-84
2024/03/31 02:00:27;;;;;;;;;;;;;;;;;;;;;
2024/03/31 02:03:16;;;;;;;5.20;4.70;;;;;;;;;;6166556;23;20410;-83
2024/03/31 02:05:56;;;;;;;9.20;5.50;;;;;;;;;;6167267;23;20413;-85
2024/03/31 02:08:32;;;;;;;8.33;4.53;;;;;;;;;;6144232;23;20406;-84
2024/03/31 02:13:59;;;;;;;5.60;5.00;;;;;;;;;;6166288;23;20398;-83
2024/03/31 02:17:01;;;;;;;;;;;;;;;;;;;;;
2024/03/31 02:20:11;;;;;;;6.37;4.97;;;;;;;;;;6187626;23;20563;-88
2024/03/31 02:22:53;;;;;;;5.07;4.20;;;;;;;;;;6165978;23;20410;-84
2024/03/31 02:25:31;;;;;;;7.80;4.70;;;;;;;;;;6142416;23;20406;-84
2024/03/31 02:31:53;;;;;;;5.77;4.20;;;;;;;;;;6194002;23;20413;-83
2024/03/31 02:34:54;;;;;;;7.03;4.40;;;;;;;;;;6140454;23;20398;-85
2024/03/31 02:37:48;;;;;;;6.00;4.30;;;;;;;;;;6140487;23;20777;-83
2024/03/31 02:40:57;;;;;;;6.40;4.40;;;;;;;;;;6142316;23;20418;-83
2024/03/31 02:43:59;;;;;;;7.13;4.53;;;;;;;;;;6171399;23;20409;-84
2024/03/31 02:46:51;;;;;;;8.43;4.83;;;;;;;;;;6141649;23;20446;-85
2024/03/31 02:49:41;;;;;;;8.73;4.80;;;;;;;;;;6132588;23;20426;-85
2024/03/31 02:52:36;;;;;;;4.23;3.80;;;;;;;;;;6138507;23;20414;-84
2024/03/31 02:55:11;;;;;;;9.50;4.47;;;;;;;;;;6158172;23;20461;-85
2024/03/31 02:58:01;;;;;;;5.60;4.40;;;;;;;;;;6182220;23;20413;-85
2024/03/31 03:01:11;;;;;;;4.43;3.90;;;;;;;;;;6177309;23;20421;-83
2024/03/31 03:04:00;;;;;;;5.07;3.93;;;;;;;;;;6142720;23;20442;-85
2024/03/31 03:06:42;;;;;;;5.80;3.80;;;;;;;;;;6135544;23;20445;-83
2024/03/31 03:09:33;;;;;;;5.20;3.50;;;;;;;;;;6147223;23;20422;-84
2024/03/31 03:12:58;;;;;;;7.80;3.77;;;;;;;;;;6057114;23;20406;-85
2024/03/31 03:15:39;;;;;;;6.60;3.87;;;;;;;;;;6145743;23;20402;-84
2024/03/31 03:18:34;;;;;;;7.80;3.60;;;;;;;;;;6146176;23;20413;-83
2024/03/31 03:23:58;;;;;;;8.00;4.17;;;;;;;;;;6139389;23;20390;-84
2024/03/31 03:26:50;;;;;;;5.20;3.50;;;;;;;;;;6161083;23;20979;-85
2024/03/31 03:29:35;;;;;;;10.80;3.90;;;;;;;;;;6131246;23;20422;-85
2024/03/31 03:32:40;;;;;;;;;;;;;;;;;;;;;
2024/03/31 03:38:49;;;;;;;15.70;6.23;;;;;;;;;;6191192;23;20405;-83
2024/03/31 03:41:28;;;;;;;;;;;;;;;;;;;;;
2024/03/31 03:44:15;;;;;;;7.43;4.30;;;;;;;;;;6201353;23;20425;-89
2024/03/31 03:46:58;;;;;;;8.40;3.77;;;;;;;;;;6161867;23;20528;-87
2024/03/31 03:49:54;;;;;;;11.30;4.00;;;;;;;;;;6171846;23;20722;-86
2024/03/31 03:56:05;;;;;;;5.40;3.83;;;;;;;;;;6214786;23;20354;-86
2024/03/31 03:58:45;;;;;;;;;;;;;;;;;;;;;
2024/03/31 04:01:23;;;;;;;5.23;3.77;;;;;;;;;;6161324;23;20406;-82
2024/03/31 04:03:59;;;;;;;6.97;3.80;;;;;;;;;;6141413;23;20409;-85
2024/03/31 04:06:50;;;;;;;;;;;;;;;;;;;;;
2024/03/31 04:10:07;;;;;;;6.33;2.90;;;;;;;;;;6152856;23;20425;-86
2024/03/31 04:13:03;;;;;;;6.00;3.30;;;;;;;;;;6073932;23;20419;-85
2024/03/31 04:16:05;;;;;;;4.80;3.00;;;;;;;;;;6163272;23;20394;-85
2024/03/31 04:19:09;;;;;;;7.57;3.90;;;;;;;;;;6107703;23;20398;-86
2024/03/31 04:22:13;;;;;;;8.20;3.33;;;;;;;;;;6174812;23;20454;-85
2024/03/31 04:25:01;;;;;;;9.73;3.30;;;;;;;;;;6139570;23;20412;-83
2024/03/31 04:37:24;;;;;;;4.50;2.63;;;;;;;;;;6043317;23;20912;-83
2024/03/31 04:40:02;;;;;;;7.97;2.63;;;;;;;;;;6052318;23;20699;-82
2024/03/31 04:42:50;;;;;;;7.50;2.73;;;;;;;;;;6091078;23;20410;-85
2024/03/31 04:46:05;;;;;;;4.73;2.73;;;;;;;;;;6171308;23;20448;-84
2024/03/31 04:48:55;;;;;;;14.37;3.43;;;;;;;;;;6079274;23;20397;-84
2024/03/31 04:58:14;;;;;;;3.57;2.40;;;;;;;;;;6144759;23;20471;-84
2024/03/31 05:01:11;;;;;;;8.10;2.67;;;;;;;;;;6154880;23;20522;-83
2024/03/31 05:03:59;;;;;;;6.27;2.50;;;;;;;;;;6127540;23;20403;-84
2024/03/31 05:06:56;;;;;;;6.20;2.50;;;;;;;;;;6134592;23;20517;-87
2024/03/31 05:13:06;;;;;;;7.43;2.70;;;;;;;;;;6157694;23;20478;-87
2024/03/31 05:15:53;;;;;;;5.27;2.40;;;;;;;;;;6125864;23;20463;-83
2024/03/31 05:28:43;;;;;;;3.57;2.40;;;;;;;;;;6153704;23;20407;-86
2024/03/31 05:31:14;;;;;;;4.83;2.63;;;;;;;;;;6127451;23;20519;-87
2024/03/31 05:40:25;;;;;;;3.67;2.30;;;;;;;;;;6109065;23;20424;-83
2024/03/31 05:43:34;;;;;;;;;;;;;;;;;;;;;
2024/03/31 05:46:47;;;;;;;8.20;2.70;;;;;;;;;;6141684;23;20478;-83
2024/03/31 05:49:35;;;;;;;7.37;2.70;;;;;;;;;;6139609;23;20438;-85
2024/03/31 05:52:54;;;;;;;4.40;2.60;;;;;;;;;;6113231;23;20414;-86
2024/03/31 05:55:48;;;;;;;6.77;2.30;;;;;;;;;;5985804;24;20404;-85
2024/03/31 05:58:26;;;;;;;9.13;2.57;;;;;;;;;;5978898;23;20433;-83
2024/03/31 06:01:12;;;;;;;5.03;2.43;;;;;;;;;;6018546;23;20431;-84
2024/03/31 06:03:54;;;;;;;5.40;3.10;;;;;;;;;;6043668;23;20406;-83
2024/03/31 06:06:31;;;;;;;4.90;2.67;;;;;;;;;;6012706;23;20922;-86
2024/03/31 06:30:27;;;;;;;5.47;2.50;;;;;;;;;;6031197;23;20481;-87
2024/03/31 06:33:06;;;;;;;5.80;2.20;;;;;;;;;;5989293;23;20442;-84
2024/03/31 06:39:31;;;;;;;10.20;2.47;;;;;;;;;;6104708;23;20517;-85
2024/03/31 06:42:35;;;;;;;3.70;2.17;;;;;;;;;;6106928;23;20400;-84
2024/03/31 06:45:43;;;;;;;9.10;2.47;;;;;;;;;;6107690;23;20397;-83
2024/03/31 06:49:00;;;;;;;3.80;2.17;;;;;;;;;;6046502;23;21027;-82
2024/03/31 06:51:38;;;;;;;8.47;2.90;;;;;;;;;;5964373;23;20411;-84
2024/03/31 06:54:30;;;;;;;4.00;2.53;;;;;;;;;;5967749;23;20444;-83
2024/03/31 06:57:40;;;;;;;3.70;2.30;;;;;;;;;;6005790;23;20908;-84
2024/03/31 07:00:40;;;;;;;6.00;2.67;;;;;;;;;;6069714;23;20407;-85
2024/03/31 07:03:38;;;;;;;11.37;2.73;;;;;;;;;;6081182;23;20403;-85
2024/03/31 07:06:38;;;;;;;5.73;3.23;;;;;;;;;;6107045;23;20396;-84
2024/03/31 07:14:53;;;;;;;4.23;1.70;;;;;;;;;;6145375;23;20395;-85
2024/03/31 07:18:22;;;;;;;8.73;2.13;;;;;;;;;;6150163;23;20478;-86
2024/03/31 07:21:12;;;;;;;3.53;1.87;;;;;;;;;;6032883;23;20429;-82
2024/03/31 07:23:46;;;;;;;6.20;2.10;;;;;;;;;;6023102;23;20402;-83
2024/03/31 07:26:26;;;;;;;7.17;2.80;;;;;;;;;;6057419;23;20402;-85
2024/03/31 07:28:59;;;;;;;7.00;2.40;;;;;;;;;;6047534;23;20413;-84
2024/03/31 07:39:06;;;;;;;4.93;1.63;;;;;;;;;;6017145;23;20378;-86
2024/03/31 07:45:36;;;;;;;7.57;2.03;;;;;;;;;;6073718;23;20494;-85
2024/03/31 07:51:41;;;;;;;9.23;1.90;;;;;;;;;;6078304;23;20465;-85
2024/03/31 07:54:52;;;;;;;4.03;1.70;;;;;;;;;;6060803;23;20415;-85
2024/03/31 07:58:03;;;;;;;5.07;1.93;;;;;;;;;;6104557;23;20387;-84
2024/03/31 08:07:02;;;;;;;6.33;1.87;;;;;;;;;;6066121;23;20517;-84
2024/03/31 08:10:01;;;;;;;5.27;2.77;;;;;;;;;;6051545;23;20440;-85
2024/03/31 08:16:52;;;;;;;4.67;1.57;;;;;;;;;;6018167;23;20455;-84
2024/03/31 08:19:51;;;;;;;;;;;;;;;;;;;;;
2024/03/31 08:26:42;;;;;;;4.33;1.40;;;;;;;;;;6052866;23;20483;-85
2024/03/31 08:29:56;;;;;;;;;;;;;;;;;;;;;
2024/03/31 08:32:32;;;;;;;4.93;1.43;;;;;;;;;;6105227;23;20400;-84
2024/03/31 08:35:55;;;;;;;8.27;2.00;;;;;;;;;;6054712;23;20402;-84
2024/03/31 08:46:00;;;;;;;7.73;1.70;;;;;;;;;;6041851;23;20389;-85
2024/03/31 08:59:17;;;;;;;;;;;;;;;;;;;;;
2024/03/31 09:06:16;;;;;;;;;;;;;;;;;;;;;
2024/03/31 09:16:21;;;;;;;7.77;1.40;;;;;;;;;;5855663;24;20948;-84
2024/03/31 09:25:06;;;;;;;8.90;2.20;;;;;;;;;;6193358;23;20362;-85
2024/03/31 09:34:57;;;;;;;5.07;1.50;;;;;;;;;;6104078;23;20413;-83
2024/03/31 10:05:07;;;;;;;2.80;1.50;;;;;;;;;;6121249;23;20384;-85
2024/03/31 10:23:47;;;;;;;3.63;1.43;;;;;;;;;;6165224;23;20944;-86
2024/03/31 10:51:18;;;;;;;5.47;1.17;;;;;;;;;;6194698;23;20396;-84
2024/03/31 10:54:08;;;;;;;4.20;1.17;;;;;;;;;;6166258;23;20398;-84
2024/03/31 11:00:33;;;;;;;;;;;;;;;;;;;;;
2024/03/31 11:10:04;;;;;;;2.03;0.83;;;;;;;;;;6092954;23;20428;-86
2024/03/31 11:13:37;;;;;;;2.37;1.00;;;;;;;;;;6043679;23;20407;-87
2024/03/31 11:16:43;;;;;;;2.83;1.00;;;;;;;;;;5985967;23;20423;-85
2024/03/31 11:22:53;;;;;;;1.67;1.13;;;;;;;;;;6174510;23;20412;-85
2024/03/31 11:26:01;;;;;;;4.63;1.40;;;;;;;;;;6133836;23;20403;-86
2024/03/31 11:28:39;;;;;;;3.50;1.20;;;;;;;;;;6020456;23;20479;-86
2024/03/31 11:34:26;;;;;;;12.33;2.13;;;;;;;;;;6023876;23;20756;-84
2024/03/31 11:40:38;;;;;;;;;;;;;;;;;;;;;
2024/03/31 11:44:06;;;;;;;2.37;0.87;;;;;;;;;;6045947;23;20416;-83
2024/03/31 11:47:31;;;;;;;3.23;1.20;;;;;;;;;;5990853;23;20486;-85
2024/03/31 11:50:18;;;;;;;4.23;1.20;;;;;;;;;;5980652;23;20426;-83
2024/03/31 11:53:10;;;;;;;;;;;;;;;;;;;;;
2024/03/31 11:56:34;;;;;;;2.47;0.90;;;;;;;;;;6047670;23;20374;-85
2024/03/31 11:59:30;;;;;;;3.40;1.50;;;;;;;;;;6138484;23;20393;-86
2024/03/31 12:02:11;;;;;;;2.37;1.20;;;;;;;;;;6136118;23;20396;-86
2024/03/31 12:04:59;;;;;;;2.23;0.90;;;;;;;;;;6081572;23;20440;-86
2024/03/31 12:07:54;;;;;;;5.87;1.70;;;;;;;;;;6102139;23;20390;-83
2024/03/31 12:10:26;;;;;;;2.20;1.00;;;;;;;;;;6123190;23;20729;-85
2024/03/31 12:13:22;;;;;;;5.20;1.43;;;;;;;;;;6163540;23;20390;-84
2024/03/31 12:18:57;;;;;;;4.87;1.47;;;;;;;;;;6153139;23;20494;-82
2024/03/31 12:22:01;;;;;;;2.60;0.83;;;;;;;;;;6138014;23;20418;-84
2024/03/31 12:24:57;;;;;;;;;;;;;;;;;;;;;
2024/03/31 12:27:48;;;;;;;6.43;1.10;;;;;;;;;;6151185;23;20418;-87
2024/03/31 12:30:46;;;;;;;8.60;1.50;;;;;;;;;;6137264;23;20422;-86
2024/03/31 12:33:33;;;;;;;3.97;1.40;;;;;;;;;;6192867;23;20410;-85
2024/03/31 12:36:28;;;;;;;6.27;1.20;;;;;;;;;;6144540;23;20403;-83
2024/03/31 12:45:16;;;;;;;7.10;1.30;;;;;;;;;;6141898;23;20937;-84
2024/03/31 12:48:14;;;;;;;2.20;0.90;;;;;;;;;;6110867;23;20408;-84
2024/03/31 12:51:21;;;;;;;6.20;1.30;;;;;;;;;;6064285;23;20412;-84
2024/03/31 12:53:52;;;;;;;2.43;0.83;;;;;;;;;;6050737;23;20421;-84
2024/03/31 12:56:52;;;;;;;3.43;1.00;;;;;;;;;;6049170;23;20441;-81
2024/03/31 12:59:42;;;;;;;3.60;0.97;;;;;;;;;;6021276;23;20460;-82
2024/03/31 13:03:09;;;;;;;5.90;1.10;;;;;;;;;;6043467;23;20407;-84
2024/03/31 13:06:03;;;;;;;5.57;1.37;;;;;;;;;;5965193;24;20484;-84
2024/03/31 13:17:32;;;;;;;3.50;1.13;;;;;;;;;;6186508;23;20449;-84
2024/03/31 13:20:20;;;;;;;3.83;1.77;;;;;;;;;;6198798;23;20410;-84
2024/03/31 13:26:21;;;;;;;2.63;1.03;;;;;;;;;;6197473;23;20405;-86
2024/03/31 13:32:08;;;;;;;4.60;1.50;;;;;;;;;;6170563;23;20491;-85
2024/03/31 13:34:54;;;;;;;4.57;1.07;;;;;;;;;;6119808;23;20403;-85
2024/03/31 13:48:05;;;;;;;3.00;1.23;;;;;;;;;;6170726;23;20399;-83
2024/03/31 13:54:23;;;;;;;5.63;1.20;;;;;;;;;;6181664;23;20418;-89
2024/03/31 14:07:41;;;;;;;5.73;1.57;;;;;;;;;;6038665;23;20413;-84
2024/03/31 14:10:51;;;;;;;7.53;1.37;;;;;;;;;;6080291;23;20444;-85
2024/03/31 14:13:50;;;;;;;9.57;2.57;;;;;;;;;;6036592;23;20546;-85
2024/03/31 14:16:40;;;;;;;3.37;1.37;;;;;;;;;;6036686;23;20401;-83
2024/03/31 14:19:19;;;;;;;5.97;0.90;;;;;;;;;;6150735;23;20463;-87
2024/03/31 14:22:15;;;;;;;8.37;2.37;;;;;;;;;;6182527;23;20375;-88
2024/03/31 14:34:52;;;;;;;5.80;1.30;;;;;;;;;;6181259;23;20429;-86
2024/03/31 14:38:00;;;;;;;;;;;;;;;;;;;;;
2024/03/31 14:44:47;;;;;;;;;;;;;;;;;;;;;
2024/03/31 14:51:40;;;;;;;6.33;2.17;;;;;;;;;;5937397;24;20418;-87
2024/03/31 14:57:47;;;;;;;7.27;2.03;;;;;;;;;;5947226;24;20465;-85
2024/03/31 15:00:22;;;;;;;8.20;1.93;;;;;;;;;;5936812;24;20509;-85
2024/03/31 15:03:32;;;;;;;5.00;1.67;;;;;;;;;;5921282;24;20402;-84
2024/03/31 15:06:47;;;;;;;7.80;2.73;;;;;;;;;;5923513;24;20421;-86
2024/03/31 15:09:54;;;;;;;6.50;1.40;;;;;;;;;;5927629;24;20415;-84
2024/03/31 15:12:57;;;;;;;;;;;;;;;;;;;;;
2024/03/31 15:16:04;;;;;;;9.67;2.00;;;;;;;;;;5953203;24;20401;-84
2024/03/31 15:18:39;;;;;;;6.80;2.10;;;;;;;;;;5937508;24;20437;-86
2024/03/31 15:21:11;;;;;;;5.97;2.00;;;;;;;;;;5958235;23;20431;-86
2024/03/31 15:26:33;;;;;;;8.30;2.40;;;;;;;;;;6015730;23;20456;-86
2024/03/31 15:29:26;;;;;;;7.77;3.00;;;;;;;;;;6140696;23;20394;-83
2024/03/31 15:32:42;;;;;;;11.57;2.07;;;;;;;;;;6054858;23;20402;-84
2024/03/31 15:35:11;;;;;;;9.63;2.77;;;;;;;;;;6127938;23;20423;-86
2024/03/31 15:38:30;;;;;;;;;;;;;;;;;;;;;
2024/03/31 15:41:12;;;;;;;8.20;2.13;;;;;;;;;;5985874;23;20458;-85
2024/03/31 15:43:59;;;;;;;;;;;;;;;;;;;;;
2024/03/31 15:47:04;;;;;;;11.73;2.47;;;;;;;;;;6135560;23;20421;-87
2024/03/31 15:50:03;;;;;;;8.30;2.20;;;;;;;;;;6107621;23;20519;-85
2024/03/31 15:52:57;;;;;;;;;;;;;;;;;;;;;
2024/03/31 15:55:51;;;;;;;5.30;1.63;;;;;;;;;;6139666;23;20437;-83
2024/03/31 15:59:05;;;;;;;11.73;3.17;;;;;;;;;;6100813;23;20456;-82
2024/03/31 16:08:23;;;;;;;12.07;2.20;;;;;;;;;;6140688;23;20412;-85
2024/03/31 16:11:25;;;;;;;9.87;2.00;;;;;;;;;;6087622;23;20816;-85
2024/03/31 16:14:31;;;;;;;;;;;;;;;;;;;;;
2024/03/31 16:20:07;;;;;;;6.80;1.50;;;;;;;;;;6124622;23;20468;-84
2024/03/31 16:23:05;;;;;;;4.90;1.53;;;;;;;;;;6125803;23;20455;-89
2024/03/31 16:25:47;;;;;;;2.57;1.43;;;;;;;;;;6101758;23;20467;-85
2024/03/31 16:31:51;;;;;;;1.90;0.83;;;;;;;;;;6134877;23;20456;-85
2024/03/31 16:34:54;;;;;;;2.00;1.13;;;;;;;;;;6084806;23;20476;-85
2024/03/31 16:37:45;;;;;;;2.70;0.83;;;;;;;;;;6078416;23;20447;-86
2024/03/31 16:40:33;;;;;;;1.73;0.83;;;;;;;;;;6105072;23;20424;-85
2024/03/31 16:43:11;;;;;;;1.20;0.80;;;;;;;;;;6100488;23;20411;-85
2024/03/31 16:45:45;;;;;;;1.73;0.80;;;;;;;;;;6050616;23;20420;-85
2024/03/31 16:48:45;;;;;;;4.30;0.90;;;;;;;;;;6053531;23;20400;-86
2024/03/31 16:54:38;;;;;;;;;;;;;;;;;;;;;
2024/03/31 16:57:20;;;;;;;2.80;1.10;;;;;;;;;;6111552;23;20822;-87
2024/03/31 17:00:28;;;;;;;4.50;1.20;;;;;;;;;;6147319;23;20406;-84
2024/03/31 17:03:07;;;;;;;2.07;1.00;;;;;;;;;;6157969;23;20407;-85
2024/03/31 17:05:46;;;;;;;3.90;1.23;;;;;;;;;;6135286;23;20406;-86
2024/03/31 17:08:31;;;;;;;1.90;0.90;;;;;;;;;;6136157;23;20399;-86
2024/03/31 17:11:18;;;;;;;1.93;0.80;;;;;;;;;;6132669;23;20494;-85
2024/03/31 17:14:05;;;;;;;2.60;0.77;;;;;;;;;;6130799;23;20756;-83
2024/03/31 17:16:40;;;;;;;4.33;1.03;;;;;;;;;;6104886;23;20466;-84
2024/03/31 17:19:26;;;;;;;4.30;1.07;;;;;;;;;;6125727;23;20412;-85
2024/03/31 17:22:16;;;;;;;2.20;1.30;;;;;;;;;;6076361;23;20397;-83
2024/03/31 17:25:07;;;;;;;3.07;1.63;;;;;;;;;;6074988;23;20902;-84
2024/03/31 17:27:56;;;;;;;5.07;2.87;;;;;;;;;;6057316;23;20419;-84
2024/03/31 17:33:37;;;;;;;5.77;2.40;;;;;;;;;;6121830;23;20448;-87
2024/03/31 17:36:13;;;;;;;3.97;1.67;;;;;;;;;;6097873;23;20488;-86
2024/03/31 17:39:08;;;;;;;4.83;1.93;;;;;;;;;;6121761;23;20404;-84
2024/03/31 17:41:56;;;;;;;4.77;1.90;;;;;;;;;;6150963;23;20465;-85
2024/03/31 17:44:33;;;;;;;4.70;2.53;;;;;;;;;;6164119;23;20418;-85
2024/03/31 17:46:59;;;;;;;2.00;1.60;;;;;;;;;;6162346;23;20725;-84
2024/03/31 17:49:42;;;;;;;2.80;1.93;;;;;;;;;;6160320;23;20423;-85
2024/03/31 17:52:46;;;;;;;5.97;2.53;;;;;;;;;;6137588;23;20434;-87
2024/03/31 17:59:02;;;;;;;3.87;2.13;;;;;;;;;;6180855;23;20477;-87
2024/03/31 18:01:54;;;;;;;2.03;1.90;;;;;;;;;;6121792;23;20480;-87
2024/03/31 18:04:46;;;;;;;6.77;2.40;;;;;;;;;;6082562;23;20453;-86
2024/03/31 18:07:43;;;;;;;;;;;;;;;;;;;;;
2024/03/31 18:10:18;;;;;;;3.73;1.47;;;;;;;;;;6098266;23;20476;-87
2024/03/31 18:13:11;;;;;;;5.17;2.27;;;;;;;;;;6065812;23;20388;-87
2024/03/31 18:16:15;;;;;;;3.80;1.73;;;;;;;;;;6071163;23;20458;-86
2024/03/31 18:19:20;;;;;;;2.93;1.80;;;;;;;;;;6093929;23;20500;-82
2024/03/31 18:22:27;;;;;;;5.93;2.83;;;;;;;;;;6050045;23;20726;-84
2024/03/31 18:25:33;;;;;;;4.10;1.87;;;;;;;;;;6056645;23;20750;-85
2024/03/31 18:31:32;;;;;;;3.50;2.60;;;;;;;;;;6158358;23;20442;-85
2024/03/31 18:34:13;;;;;;;3.90;3.10;;;;;;;;;;6110949;23;20404;-85
2024/03/31 18:36:49;;;;;;;8.37;4.30;;;;;;;;;;6113068;23;20403;-84
2024/03/31 18:42:38;;;;;;;3.17;2.33;;;;;;;;;;6166055;23;20367;-90
2024/03/31 18:48:40;;;;;;;2.67;2.37;;;;;;;;;;6115423;23;20829;-85
2024/03/31 18:51:25;;;;;;;3.47;2.47;;;;;;;;;;6107982;23;20426;-86
2024/03/31 18:54:43;;;;;;;2.03;1.63;;;;;;;;;;6129390;23;20414;-84
2024/03/31 19:00:48;;;;;;;3.07;2.13;;;;;;;;;;6112128;23;20457;-84
2024/03/31 19:03:20;;;;;;;6.90;3.10;;;;;;;;;;6161437;23;20395;-86
2024/03/31 19:06:11;;;;;;;;;;;;;;;;;;;;;
2024/03/31 19:09:06;;;;;;;3.97;2.23;;;;;;;;;;6181595;23;20395;-86
2024/03/31 19:12:03;;;;;;;4.13;2.43;;;;;;;;;;6133949;23;20402;-86
2024/03/31 19:15:18;;;;;;;;;;;;;;;;;;;;;
2024/03/31 19:37:49;;;;;;;;;;;;;;;;;;;;;
2024/03/31 19:44:08;;;;;;;1.40;0.90;;;;;;;;;;6104254;23;20429;-86
2024/03/31 19:46:48;;;;;;;2.27;0.70;;;;;;;;;;6079399;23;20411;-87
2024/03/31 19:49:49;;;;;;;2.70;0.80;;;;;;;;;;6109236;23;20447;-87
2024/03/31 19:52:22;;;;;;;1.50;1.07;;;;;;;;;;6093895;23;20456;-87
2024/03/31 19:55:40;;;;;;;1.03;0.93;;;;;;;;;;6121700;23;20388;-87
2024/03/31 20:05:23;;;;;;;1.40;0.77;;;;;;;;;;6083067;23;20424;-84
2024/03/31 20:08:34;;;;;;;1.00;0.67;;;;;;;;;;6128974;23;20402;-87
2024/03/31 20:44:08;;;;;;;0.80;0.80;;;;;;;;;;6169054;23;20451;-84
2024/03/31 20:47:11;;;;;;;1.53;0.67;;;;;;;;;;6033913;23;20410;-86
2024/03/31 20:56:42;;;;;;;2.07;0.80;;;;;;;;;;5882586;24;20403;-85
2024/03/31 21:13:06;;;;;;;1.07;0.77;;;;;;;;;;6003355;23;20402;-85
2024/03/31 21:16:11;;;;;;;1.50;0.60;;;;;;;;;;5954649;24;20409;-84
2024/03/31 21:19:12;;;;;;;0.70;0.60;;;;;;;;;;5987841;24;20516;-84
2024/03/31 21:22:49;;;;;;;;;;;;;;;;;;;;;
2024/03/31 21:51:20;;;;;;;;;;;;;;;;;;;;;
2024/03/31 21:58:28;;;;;;;0.67;0.67;;;;;;;;;;6045948;23;20557;-85
2024/03/31 22:11:44;;;;;;;1.00;0.80;;;;;;;;;;5880090;24;20507;-85
2024/03/31 23:10:41;;;;;;;2.83;1.00;;;;;;;;;;6153059;23;20496;-86
2024/03/31 23:24:47;;;;;;;;;;;;;;;;;;;;;
2024/03/31 23:38:19;;;;;;;;;;;;;;;;;;;;;
2024/03/31 23:48:14;;;;;;;1.17;0.70;;;;;;;;;;5912111;24;20415;-87
2024/03/31 23:51:26;;;;;;;;;;;;;;;;;;;;;
